Time;durP1;ratioP1;P1;durP2;ratioP2;P2;SDS_P1;SDS_P2;PMS_P1;PMS_P2;Temp;Humidity;BMP_temperature;BMP_pressure;BME280_temperature;BME280_humidity;BME280_pressure;Samples;Min_cycle;Max_cycle;Signal;HPM_P1;HPM_P2
2021/12/17 00:07:23;;;;;;;74.80;23.20;;;;;;;;;;6187416;23;20739;-79
2021/12/17 00:09:53;;;;;;;71.63;21.92;;;;;;;;;;6188003;23;20370;-79
2021/12/17 00:12:20;;;;;;;71.80;21.85;;;;;;;;;;6162327;23;20460;-79
2021/12/17 00:14:48;;;;;;;67.28;22.13;;;;;;;;;;6163155;23;20859;-79
2021/12/17 00:17:19;;;;;;;76.20;22.93;;;;;;;;;;6140351;23;20480;-79
2021/12/17 00:51:01;;;;;;;70.22;21.15;;;;;;;;;;6187289;23;20459;-80
2021/12/17 00:52:59;;;;;;;61.55;22.38;;;;;;;;;;6181226;23;20428;-79
2021/12/17 00:55:25;;;;;;;59.35;20.33;;;;;;;;;;6185690;23;20377;-79
2021/12/17 00:57:51;;;;;;;46.13;16.90;;;;;;;;;;6163496;23;20393;-80
2021/12/17 01:00:20;;;;;;;43.20;15.73;;;;;;;;;;6187088;23;20459;-79
2021/12/17 01:02:47;;;;;;;40.20;16.48;;;;;;;;;;6162564;23;20397;-79
2021/12/17 01:05:18;;;;;;;43.38;19.55;;;;;;;;;;6187923;23;20370;-78
2021/12/17 01:07:47;;;;;;;39.42;16.38;;;;;;;;;;6186584;23;20392;-79
2021/12/17 01:10:25;;;;;;;41.85;22.25;;;;;;;;;;6162692;23;20904;-79
2021/12/17 01:12:51;;;;;;;32.63;14.80;;;;;;;;;;6187603;23;20515;-79
2021/12/17 01:15:19;;;;;;;35.40;17.88;;;;;;;;;;6162766;23;20588;-80
2021/12/17 01:17:46;;;;;;;37.08;17.13;;;;;;;;;;6186878;23;20381;-79
2021/12/17 01:20:27;;;;;;;37.83;18.70;;;9.10;99.90;;;;;;6162193;23;20419;-80
2021/12/17 01:23:09;;;;;;;44.97;25.25;;;;;;;;;;6142214;23;20428;-80
2021/12/17 01:25:52;;;;;;;34.63;16.40;;;;;;;;;;6166710;23;20375;-79
2021/12/17 01:36:33;;;;;;;53.63;23.80;;;;;;;;;;6170521;23;20396;-81
2021/12/17 01:44:25;;;;;;;47.53;17.45;;;;;;;;;;6192728;23;20372;-81
2021/12/17 01:46:52;;;;;;;43.88;16.95;;;;;;;;;;6191380;23;20380;-80
2021/12/17 01:59:58;;;;;;;46.35;17.45;;;9.00;99.90;;;;;;6191491;23;21158;-81
2021/12/17 02:02:25;;;;;;;45.42;17.35;;;9.10;99.90;;;;;;6191655;23;20948;-81
2021/12/17 02:04:51;;;;;;;41.40;17.45;;;;;;;;;;6192129;23;20368;-81
2021/12/17 02:07:18;;;;;;;46.42;17.90;;;;;;;;;;6142593;23;20399;-81
2021/12/17 02:19:41;;;;;;;49.67;18.65;;;;;;;;;;6194147;23;20383;-82
2021/12/17 02:29:10;;;;;;;47.50;18.43;;;;;;;;;;6194677;23;20372;-82
2021/12/17 02:31:36;;;;;;;44.72;18.77;;;;;;;;;;6196694;23;20398;-82
2021/12/17 02:34:28;;;;;;;45.30;18.30;;;;;;;;;;6172127;23;20374;-82
2021/12/17 02:36:56;;;;;;;52.92;18.85;;;;;;;;;;6193236;23;21158;-82
2021/12/17 02:47:27;;;;;;;58.25;20.98;;;;;;;;;;6172161;23;20698;-82
2021/12/17 02:49:53;;;;;;;58.28;21.35;;;;;;;;;;6193702;23;20367;-83
2021/12/17 02:52:20;;;;;;;54.65;21.58;;;;;;;;;;6193796;23;20368;-83
2021/12/17 02:54:47;;;;;;;52.47;21.33;;;;;;;;;;6192918;23;20378;-83
2021/12/17 02:57:13;;;;;;;50.08;19.27;;;;;;;;;;6168680;23;20464;-83
2021/12/17 02:59:39;;;;;;;55.20;20.27;;;;;;;;;;6193366;23;20364;-83
2021/12/17 03:02:07;;;;;;;57.88;20.55;;;;;;;;;;6168820;23;20524;-84
2021/12/17 03:04:35;;;;;;;49.45;19.70;;;9.10;99.90;;;;;;6192919;23;20380;-83
2021/12/17 03:07:01;;;;;;;51.60;19.77;;;;;;;;;;6219530;23;20419;-85
2021/12/17 03:12:09;;;;;;;47.28;19.75;;;;;;;;;;6190475;23;20372;-83
2021/12/17 03:14:42;;;;;;;54.88;21.58;;;;;;;;;;6193237;23;20947;-83
2021/12/17 03:17:16;;;;;;;49.45;19.40;;;;;;;;;;6193639;23;20390;-84
2021/12/17 03:25:05;;;;;;;54.95;20.80;;;;;;;;;;6192689;23;20462;-84
2021/12/17 03:27:32;;;;;;;58.93;20.87;;;;;;;;;;6168469;23;20462;-84
2021/12/17 03:29:58;;;;;;;54.53;20.73;;;;;;;;;;6193086;23;20410;-83
2021/12/17 03:32:24;;;;;;;56.50;20.50;;;;;;;;;;6191747;23;20744;-84
2021/12/17 03:34:51;;;;;;;51.10;20.33;;;;;;;;;;6193353;23;20363;-85
2021/12/17 03:37:17;;;;;;;46.58;19.83;;;;;;;;;;6192829;23;20451;-82
2021/12/17 03:39:44;;;;;;;49.05;20.15;;;;;;;;;;6193010;23;20398;-84
2021/12/17 03:42:10;;;;;;;52.22;19.45;;;;;;;;;;6192486;23;20395;-84
2021/12/17 03:44:36;;;;;;;48.83;19.45;;;;;;;;;;6167294;23;20364;-84
2021/12/17 03:47:04;;;;;;;48.20;18.98;;;;;;;;;;6193231;23;20379;-85
2021/12/17 03:49:33;;;;;;;45.80;19.23;;;;;;;;;;6168303;23;20440;-85
2021/12/17 03:52:05;;;;;;;46.58;19.48;;;;;;;;;;6193912;23;20428;-85
2021/12/17 03:54:35;;;;;;;45.67;18.77;;;;;;;;;;6191940;23;20430;-85
2021/12/17 03:57:01;;;;;;;44.88;19.45;;;;;;;;;;6193628;23;20376;-85
2021/12/17 03:59:27;;;;;;;49.33;19.58;;;;;;;;;;6168013;23;20367;-85
2021/12/17 04:01:53;;;;;;;55.60;20.33;;;;;;;;;;6144074;23;20383;-85
2021/12/17 04:04:19;;;;;;;49.75;19.95;;;;;;;;;;6168362;23;20844;-85
2021/12/17 04:06:45;;;;;;;59.05;21.45;;;;;;;;;;6192317;23;20402;-87
2021/12/17 04:09:12;;;;;;;61.37;21.53;;;;;;;;;;6194003;23;20363;-86
2021/12/17 04:11:38;;;;;;;56.07;21.07;;;;;;;;;;6167050;23;20372;-87
2021/12/17 04:14:05;;;;;;;53.83;21.05;;;;;;;;;;6168837;23;20392;-87
2021/12/17 04:16:33;;;;;;;54.57;21.23;;;;;;;;;;6167242;23;20694;-87
2021/12/17 04:18:59;;;;;;;56.50;21.83;;;;;;;;;;6144983;23;20367;-87
2021/12/17 04:21:26;;;;;;;46.25;20.38;;;;;;;;;;6167602;23;20375;-87
2021/12/17 04:23:56;;;;;;;50.53;20.52;;;;;;;;;;6167524;23;20422;-88
2021/12/17 04:26:23;;;;;;;57.08;21.60;;;;;;;;;;6167534;23;20376;-87
2021/12/17 04:28:51;;;;;;;49.28;20.25;;;;;;;;;;6192335;23;20372;-87
2021/12/17 04:31:19;;;;;;;56.58;21.92;;;8.60;99.90;;;;;;6196834;23;20372;-88
2021/12/17 04:33:45;;;;;;;53.72;21.27;;;;;;;;;;6171847;23;20363;-87
2021/12/17 04:36:16;;;;;;;50.95;20.95;;;;;;;;;;6171350;23;20971;-88
2021/12/17 04:38:42;;;;;;;50.58;20.52;;;;;;;;;;6195190;23;20376;-87
2021/12/17 04:44:04;;;;;;;48.15;20.35;;;;;;;;;;6170325;23;20886;-88
2021/12/17 04:46:37;;;;;;;40.25;18.02;;;;;;;;;;6167544;23;20371;-83
2021/12/17 04:57:20;;;;;;;45.45;18.70;;;;;;;;;;6192849;23;20403;-88
2021/12/17 04:57:37;;;;;;;42.20;18.33;;;;;;;;;;6193670;23;20392;-88
2021/12/17 05:00:07;;;;;;;41.93;17.80;;;;;;;;;;6192022;23;20541;-87
2021/12/17 05:02:38;;;;;;;42.97;18.23;;;;;;;;;;6192797;23;20797;-88
2021/12/17 05:05:07;;;;;;;40.50;17.27;;;;;;;;;;6192834;23;20841;-88
2021/12/17 05:07:35;;;;;;;40.97;17.42;;;;;;;;;;6192860;23;20367;-88
2021/12/17 05:18:19;;;;;;;41.92;18.75;;;;;;;;;;6192597;23;20375;-89
2021/12/17 05:20:57;;;;;;;37.30;16.88;;;;;;;;;;6167139;23;20450;-89
2021/12/17 05:23:29;;;;;;;40.60;18.58;;;;;;;;;;6145803;23;20391;-88
2021/12/17 05:25:57;;;;;;;40.40;16.88;;;;;;;;;;6168048;23;20375;-86
2021/12/17 05:28:23;;;;;;;38.85;17.25;;;;;;;;;;6167841;23;20415;-88
2021/12/17 05:30:49;;;;;;;37.70;17.02;;;;;;;;;;6193187;23;20400;-88
2021/12/17 05:33:16;;;;;;;36.33;16.40;;;;;;;;;;6192241;23;20375;-89
2021/12/17 05:35:42;;;;;;;37.10;16.88;;;;;;;;;;6168986;23;20402;-88
2021/12/17 05:38:11;;;;;;;35.70;16.30;;;;;;;;;;6167503;23;20370;-88
2021/12/17 05:40:38;;;;;;;34.80;16.20;;;;;;;;;;6167250;23;20423;-89
2021/12/17 05:43:05;;;;;;;29.73;14.93;;;;;;;;;;6168112;23;20396;-87
2021/12/17 05:45:37;;;;;;;40.95;19.40;;;;;;;;;;6167922;23;20368;-87
2021/12/17 05:48:04;;;;;;;32.38;15.52;;;;;;;;;;6193151;23;20375;-87
2021/12/17 05:50:32;;;;;;;33.78;15.18;;;;;;;;;;6195920;23;20687;-88
2021/12/17 05:52:58;;;;;;;31.52;14.82;;;;;;;;;;6196511;23;20467;-88
2021/12/17 05:55:27;;;;;;;32.50;14.52;;;;;;;;;;6169552;23;21419;-88
2021/12/17 05:57:54;;;;;;;31.60;14.70;;;;;;;;;;6194780;23;20398;-88
2021/12/17 06:00:21;;;;;;;35.00;15.37;;;;;;;;;;6168735;23;20370;-87
2021/12/17 06:02:48;;;;;;;28.93;13.60;;;;;;;;;;6193357;23;20439;-88
2021/12/17 06:05:14;;;;;;;29.57;15.07;;;;;;;;;;6169796;23;20555;-88
2021/12/17 06:07:40;;;;;;;31.05;14.88;;;;;;;;;;6197222;23;20399;-88
2021/12/17 06:10:08;;;;;;;28.10;14.25;;;;;;;;;;6170290;23;20386;-88
2021/12/17 06:12:35;;;;;;;44.97;17.98;;;;;;;;;;6193328;23;20401;-88
2021/12/17 06:15:05;;;;;;;32.92;14.63;;;8.80;99.90;;;;;;6145298;23;20396;-87
2021/12/17 06:17:31;;;;;;;31.75;14.60;;;;;;;;;;6169713;23;21105;-88
2021/12/17 06:19:57;;;;;;;34.15;16.27;;;;;;;;;;6168709;23;20363;-89
2021/12/17 06:22:23;;;;;;;31.75;14.07;;;;;;;;;;6169877;23;20395;-88
2021/12/17 06:24:50;;;;;;;30.75;14.00;;;;;;;;;;6193248;23;20495;-89
2021/12/17 06:27:17;;;;;;;30.63;14.73;;;;;;;;;;6194789;23;20439;-89
2021/12/17 06:29:43;;;;;;;42.67;15.68;;;;;;;;;;6168039;23;20364;-89
2021/12/17 06:32:09;;;;;;;52.83;27.08;;;;;;;;;;6194148;23;20364;-85
2021/12/17 06:34:36;;;;;;;35.57;15.23;;;;;;;;;;6193685;23;20464;-88
2021/12/17 06:37:02;;;;;;;43.45;17.40;;;;;;;;;;6168487;23;20458;-88
2021/12/17 06:39:28;;;;;;;38.80;17.00;;;;;;;;;;6193383;23;20368;-88
2021/12/17 06:41:55;;;;;;;42.65;19.08;;;;;;;;;;6146341;23;20367;-88
2021/12/17 06:44:24;;;;;;;44.33;18.52;;;;;;;;;;6198953;23;20372;-87
2021/12/17 07:10:50;;;;;;;44.13;20.35;;;;;;;;;;6192506;23;20616;-85
2021/12/17 07:19:39;;;;;;;42.42;20.90;;;;;;;;;;6187940;23;20384;-87
2021/12/17 07:24:47;;;;;;;43.85;21.55;;;;;;;;;;6181908;23;20484;-84
2021/12/17 07:32:48;;;;;;;51.95;26.77;;;;;;;;;;6182106;23;20437;-86
2021/12/17 07:40:33;;;;;;;43.13;20.00;;;8.80;99.90;;;;;;6181855;23;20927;-88
2021/12/17 07:43:02;;;;;;;169.85;70.00;;;;;;;;;;6181116;23;20393;-86
2021/12/17 07:45:28;;;;;;;47.22;20.42;;;;;;;;;;6180415;23;20373;-87
2021/12/17 07:47:55;;;;;;;44.83;21.15;;;;;;;;;;6181609;23;20468;-87
2021/12/17 07:50:21;;;;;;;51.40;21.10;;;;;;;;;;6156271;23;20373;-86
2021/12/17 07:52:47;;;;;;;50.73;20.67;;;;;;;;;;6182030;23;20400;-85
2021/12/17 07:55:13;;;;;;;53.70;22.00;;;;;;;;;;6156759;23;20512;-86
2021/12/17 07:57:39;;;;;;;40.80;19.13;;;;;;;;;;6182612;23;20771;-85
2021/12/17 08:00:06;;;;;;;43.08;19.52;;;;;;;;;;6182070;23;20381;-85
2021/12/17 08:02:33;;;;;;;41.40;18.85;;;;;;;;;;6157977;23;20393;-85
2021/12/17 08:04:59;;;;;;;41.75;20.13;;;;;;;;;;6187512;23;20380;-85
2021/12/17 08:07:25;;;;;;;46.30;20.48;;;;;;;;;;6185229;23;20380;-85
2021/12/17 08:09:51;;;;;;;42.03;19.77;;;;;;;;;;6187526;23;20369;-85
2021/12/17 08:12:17;;;;;;;38.25;17.92;;;;;;;;;;6186604;23;20365;-83
2021/12/17 08:14:43;;;;;;;38.85;18.10;;;;;;;;;;6188075;23;20449;-85
2021/12/17 08:27:48;;;;;;;35.07;17.57;;;;;;;;;;6190288;23;20370;-81
2021/12/17 08:32:45;;;;;;;33.50;17.13;;;8.90;99.90;;;;;;6166306;23;20370;-84
2021/12/17 08:35:11;;;;;;;32.30;17.08;;;;;;;;;;6167449;23;20388;-85
2021/12/17 08:37:38;;;;;;;35.03;17.35;;;;;;;;;;6188685;23;20373;-84
2021/12/17 08:40:04;;;;;;;37.28;16.95;;;;;;;;;;6167807;23;20456;-87
2021/12/17 08:42:31;;;;;;;33.90;17.00;;;;;;;;;;6166853;23;20397;-87
2021/12/17 08:44:59;;;;;;;31.73;16.35;;;;;;;;;;6167927;23;20370;-87
2021/12/17 08:47:26;;;;;;;35.85;17.20;;;;;;;;;;6168705;23;20377;-86
2021/12/17 08:49:53;;;;;;;35.25;17.88;;;;;;;;;;6168568;23;20380;-86
2021/12/17 08:52:19;;;;;;;37.50;17.60;;;;;;;;;;6192264;23;20373;-86
2021/12/17 08:54:46;;;;;;;34.80;17.25;;;;;;;;;;6168399;23;20408;-88
2021/12/17 08:57:12;;;;;;;36.13;17.73;;;;;;;;;;6172326;23;20373;-87
2021/12/17 08:59:39;;;;;;;35.85;17.35;;;;;;;;;;6175490;23;20449;-88
2021/12/17 09:02:05;;;;;;;34.45;17.90;;;;;;;;;;6173215;23;20377;-88
2021/12/17 09:04:31;;;;;;;35.33;17.60;;;;;;;;;;6146597;23;20400;-87
2021/12/17 09:06:58;;;;;;;34.60;17.35;;;;;;;;;;6167270;23;20373;-88
2021/12/17 09:09:24;;;;;;;35.15;17.65;;;;;;;;;;6162472;23;20366;-87
2021/12/17 09:11:50;;;;;;;36.72;18.00;;;;;;;;;;6186867;23;20400;-87
2021/12/17 09:14:19;;;;;;;35.80;18.35;;;;;;;;;;6186203;23;20374;-87
2021/12/17 09:16:49;;;;;;;38.53;18.55;;;;;;;;;;6186655;23;20441;-88
2021/12/17 09:19:15;;;;;;;37.75;18.45;;;;;;;;;;6161408;23;20449;-87
2021/12/17 09:21:42;;;;;;;41.38;19.80;;;;;;;;;;6136563;23;20369;-87
2021/12/17 09:24:08;;;;;;;36.22;18.38;;;;;;;;;;6162106;23;20412;-88
2021/12/17 09:26:34;;;;;;;37.20;18.33;;;;;;;;;;6164438;23;20448;-88
2021/12/17 09:29:01;;;;;;;36.15;18.05;;;;;;;;;;6163584;23;20369;-87
2021/12/17 09:31:27;;;;;;;34.63;17.83;;;;;;;;;;6164202;23;20473;-84
2021/12/17 09:33:53;;;;;;;36.45;18.48;;;;;;;;;;6184116;23;20468;-85
2021/12/17 09:36:20;;;;;;;34.72;18.67;;;;;;;;;;6164522;23;20365;-86
2021/12/17 09:38:49;;;;;;;30.02;17.20;;;;;;;;;;6165185;23;20727;-86
2021/12/17 09:41:20;;;;;;;30.90;16.75;;;;;;;;;;6163881;23;20375;-85
2021/12/17 09:43:46;;;;;;;28.45;15.48;;;;;;;;;;6163651;23;20401;-85
2021/12/17 09:46:12;;;;;;;25.98;15.82;;;;;;;;;;6189077;23;20365;-87
2021/12/17 09:48:39;;;;;;;22.87;14.10;;;;;;;;;;6164423;23;20985;-87
2021/12/17 09:51:06;;;;;;;22.98;14.02;;;;;;;;;;6188242;23;20383;-87
2021/12/17 09:53:33;;;;;;;22.83;13.75;;;;;;;;;;6189123;23;20412;-87
2021/12/17 09:56:00;;;;;;;22.70;14.13;;;;;;;;;;6190061;23;20373;-87
2021/12/17 09:58:26;;;;;;;22.52;14.25;;;;;;;;;;6163186;23;20453;-88
2021/12/17 10:00:52;;;;;;;21.87;12.93;;;;;;;;;;6140099;23;20377;-85
2021/12/17 10:03:19;;;;;;;22.77;14.15;;;;;;;;;;6163326;23;20407;-87
2021/12/17 10:05:45;;;;;;;23.55;13.75;;;;;;;;;;6165302;23;20452;-87
2021/12/17 10:08:14;;;;;;;22.55;13.93;;;;;;;;;;6164225;23;20369;-86
2021/12/17 10:10:45;;;;;;;31.42;15.25;;;;;;;;;;6164649;23;20377;-88
2021/12/17 10:13:14;;;;;;;28.13;16.75;;;;;;;;;;6164814;23;20377;-85
2021/12/17 10:15:42;;;;;;;30.17;17.08;;;;;;;;;;6188248;23;20385;-85
2021/12/17 10:18:08;;;;;;;30.23;17.90;;;;;;;;;;6164939;23;20377;-87
2021/12/17 10:20:54;;;;;;;31.63;17.92;;;;;;;;;;6163253;23;20461;-86
2021/12/17 10:23:21;;;;;;;30.98;16.58;;;;;;;;;;6163851;23;20743;-85
2021/12/17 10:25:47;;;;;;;31.35;16.70;;;;;;;;;;6139684;23;20378;-85
2021/12/17 10:28:14;;;;;;;34.63;17.83;;;;;;;;;;6189187;23;20369;-85
2021/12/17 10:30:42;;;;;;;29.38;16.58;;;;;;;;;;6190280;23;20384;-81
2021/12/17 10:33:09;;;;;;;29.63;16.05;;;;;;;;;;6159506;23;20378;-86
2021/12/17 10:35:38;;;;;;;30.02;16.10;;;;;;;;;;6163689;23;20433;-86
2021/12/17 10:38:05;;;;;;;31.55;17.02;;;;;;;;;;6139285;23;20369;-86
2021/12/17 10:40:34;;;;;;;29.33;16.75;;;;;;;;;;6163221;23;20824;-86
2021/12/17 10:43:09;;;;;;;32.88;17.67;;;9.40;99.90;;;;;;6186972;23;20505;-86
2021/12/17 10:45:37;;;;;;;29.95;16.75;;;;;;;;;;6162631;23;20385;-87
2021/12/17 10:51:44;;;;;;;31.40;17.03;;;;;;;;;;6188449;23;20803;-88
2021/12/17 10:54:06;;;;;;;34.78;17.85;;;;;;;;;;6184148;23;20381;-89
2021/12/17 10:56:38;;;;;;;31.88;16.75;;;;;;;;;;6162958;23;20373;-88
2021/12/17 10:59:09;;;;;;;32.58;16.88;;;;;;;;;;6188053;23;20373;-88
2021/12/17 11:01:41;;;;;;;30.17;16.70;;;;;;;;;;6186964;23;20372;-87
2021/12/17 11:04:15;;;;;;;35.88;17.95;;;;;;;;;;6189377;23;20389;-88
2021/12/17 11:06:50;;;;;;;35.22;17.77;;;;;;;;;;6188577;23;20464;-88
2021/12/17 11:09:32;;;;;;;38.50;19.73;;;;;;;;;;6163151;23;20752;-89
2021/12/17 11:12:01;;;;;;;35.20;19.30;;;9.80;99.90;;;;;;6190251;23;20391;-88
2021/12/17 11:14:28;;;;;;;34.22;17.17;;;;;;;;;;6164850;23;21026;-90
2021/12/17 11:16:54;;;;;;;36.72;16.83;;;;;;;;;;6191953;23;20391;-89
2021/12/17 11:19:21;;;;;;;33.35;16.98;;;;;;;;;;6174346;23;20408;-90
2021/12/17 11:21:57;;;;;;;36.13;19.33;;;;;;;;;;6176076;23;20447;-93
2021/12/17 11:24:23;;;;;;;36.17;19.02;;;;;;;;;;6169362;23;20396;-87
2021/12/17 11:26:50;;;;;;;37.83;19.05;;;;;;;;;;6168355;23;20412;-90
2021/12/17 11:29:17;;;;;;;35.83;17.95;;;;;;;;;;6170883;23;20370;-91
2021/12/17 11:31:43;;;;;;;33.33;16.90;;;;;;;;;;6174945;23;20369;-92
2021/12/17 11:34:10;;;;;;;29.98;16.67;;;;;;;;;;6198934;23;20377;-89
2021/12/17 11:36:36;;;;;;;27.90;16.10;;;;;;;;;;6165070;23;20373;-90
2021/12/17 11:39:02;;;;;;;31.33;16.63;;;;;;;;;;6156655;23;20448;-94
2021/12/17 11:41:44;;;;;;;49.78;31.77;;;;;;;;;;6158628;23;20401;-93
2021/12/17 11:44:12;;;;;;;35.90;20.00;;;;;;;;;;6158055;23;20433;-92
2021/12/17 11:46:39;;;;;;;30.20;16.85;;;;;;;;;;6157321;23;20373;-89
2021/12/17 11:49:07;;;;;;;31.93;17.93;;;;;;;;;;6157304;23;20483;-93
2021/12/17 11:51:34;;;;;;;32.70;16.65;;;;;;;;;;6178054;23;20373;-87
2021/12/17 11:54:06;;;;;;;27.38;15.20;;;;;;;;;;6154440;23;20433;-93
2021/12/17 11:56:45;;;;;;;40.92;26.60;;;;;;;;;;6157562;23;20381;-92
2021/12/17 11:59:32;;;;;;;41.65;29.55;;;;;;;;;;6181175;23;20381;-92
2021/12/17 12:02:05;;;;;;;31.48;20.35;;;;;;;;;;6182343;23;20803;-91
2021/12/17 12:04:33;;;;;;;35.63;22.65;;;;;;;;;;6181884;23;20381;-92
2021/12/17 12:07:10;;;;;;;33.08;23.42;;;;;;;;;;6158339;23;21301;-92
2021/12/17 12:09:58;;;;;;;42.30;28.00;;;;;;;;;;6188107;23;20373;-92
2021/12/17 12:12:28;;;;;;;44.80;32.55;;;;;;;;;;6168329;23;20735;-88
2021/12/17 12:14:54;;;;;;;36.07;24.20;;;;;;;;;;6159273;23;20388;-91
2021/12/17 12:17:39;;;;;;;32.10;21.75;;;;;;;;;;6161980;23;20389;-90
2021/12/17 12:20:05;;;;;;;29.98;19.83;;;;;;;;;;6185107;23;20396;-86
2021/12/17 12:22:32;;;;;;;37.25;28.30;;;;;;;;;;6187808;23;20471;-91
2021/12/17 12:25:17;;;;;;;38.67;26.80;;;;;;;;;;6137939;23;20468;-91
2021/12/17 12:27:46;;;;;;;25.77;16.33;;;;;;;;;;6161638;23;20412;-89
2021/12/17 12:30:14;;;;;;;23.30;15.90;;;;;;;;;;6161829;23;20384;-91
2021/12/17 12:32:59;;;;;;;26.00;17.53;;;;;;;;;;6138939;23;20440;-92
2021/12/17 12:35:25;;;;;;;20.92;13.35;;;;;;;;;;6189821;23;20369;-91
2021/12/17 12:38:10;;;;;;;20.15;13.27;;;;;;;;;;6163222;23;20878;-91
2021/12/17 12:40:43;;;;;;;17.43;11.90;;;;;;;;;;6165327;23;20457;-91
2021/12/17 12:43:24;;;;;;;16.27;10.98;;;;;;;;;;6186334;23;20393;-91
2021/12/17 12:45:50;;;;;;;22.15;16.67;;;;;;;;;;6162513;23;20408;-90
2021/12/17 12:48:30;;;;;;;31.92;23.77;;;;;;;;;;6162903;23;20381;-91
2021/12/17 12:51:13;;;;;;;19.77;13.80;;;;;;;;;;6187097;23;20401;-91
2021/12/17 12:53:39;;;;;;;20.17;12.23;;;;;;;;;;6161780;23;20420;-90
2021/12/17 12:56:08;;;;;;;22.05;15.05;;;;;;;;;;6186053;23;20375;-92
2021/12/17 12:58:37;;;;;;;23.65;16.25;;;;;;;;;;6186990;23;20376;-90
2021/12/17 13:01:06;;;;;;;22.40;16.67;;;;;;;;;;6186815;23;20373;-91
2021/12/17 13:03:37;;;;;;;20.35;15.43;;;;;;;;;;6187179;23;20903;-91
2021/12/17 13:06:04;;;;;;;20.70;14.80;;;;;;;;;;6187804;23;20382;-91
2021/12/17 13:08:31;;;;;;;17.17;11.55;;;;;;;;;;6186091;23;20369;-92
2021/12/17 13:10:59;;;;;;;15.50;9.93;;;;;;;;;;6163576;23;20735;-92
2021/12/17 13:13:40;;;;;;;13.10;9.18;;;;;;;;;;6186760;23;20382;-92
2021/12/17 13:16:13;;;;;;;15.20;11.13;;;;;;;;;;6187946;23;20369;-90
2021/12/17 13:24:07;;;;;;;8.60;6.80;;;;;;;;;;6166216;23;20497;-88
2021/12/17 13:26:33;;;;;;;8.60;6.22;;;;;;;;;;6190386;23;20719;-89
2021/12/17 13:29:05;;;;;;;9.27;6.70;;;;;;;;;;6188153;23;20370;-89
2021/12/17 13:31:32;;;;;;;11.00;7.18;;;;;;;;;;6189214;23;20440;-88
2021/12/17 13:33:58;;;;;;;10.85;7.40;;;;;;;;;;6162315;23;20423;-89
2021/12/17 13:36:24;;;;;;;14.82;9.18;;;;;;;;;;6162299;23;20504;-89
2021/12/17 13:38:57;;;;;;;15.50;10.85;;;;;;;;;;6186597;23;20369;-89
2021/12/17 13:41:40;;;;;;;14.77;11.30;;;;;;;;;;6188774;23;20460;-88
2021/12/17 13:44:24;;;;;;;16.85;11.57;;;;;;;;;;6161566;23;20773;-87
2021/12/17 13:46:50;;;;;;;14.13;9.60;;;;;;;;;;6189684;23;20380;-88
2021/12/17 13:49:16;;;;;;;13.88;10.02;;;;;;;;;;6167722;23;20372;-89
2021/12/17 13:51:43;;;;;;;14.07;9.15;;;;;;;;;;6167356;23;20410;-88
2021/12/17 13:54:09;;;;;;;10.77;8.57;;;;;;;;;;6142485;23;20432;-87
2021/12/17 13:56:35;;;;;;;10.68;7.80;;;;;;;;;;6166369;23;20382;-87
2021/12/17 13:59:02;;;;;;;14.23;12.43;;;;;;;;;;6162780;23;20806;-86
2021/12/17 14:01:28;;;;;;;12.57;9.30;;;;;;;;;;6188351;23;20405;-87
2021/12/17 14:03:54;;;;;;;12.05;8.88;;;;;;;;;;6138013;23;20427;-86
2021/12/17 14:06:28;;;;;;;12.20;7.90;;;;;;;;;;6162385;23;20370;-86
2021/12/17 14:08:54;;;;;;;62.60;16.33;;;;;;;;;;6162882;23;20388;-87
2021/12/17 14:11:25;;;;;;;15.70;10.65;;;;;;;;;;6180231;23;20899;-88
2021/12/17 14:13:52;;;;;;;15.05;10.68;;;;;;;;;;6180695;23;20432;-86
2021/12/17 14:16:28;;;;;;;12.52;9.73;;;;;;;;;;6181522;23;20374;-84
2021/12/17 14:19:00;;;;;;;12.52;8.75;;;;;;;;;;6164305;23;20377;-85
2021/12/17 14:21:27;;;;;;;11.65;9.07;;;;;;;;;;6162832;23;20962;-85
2021/12/17 14:23:53;;;;;;;12.77;8.15;;;;;;;;;;6163919;23;20397;-84
2021/12/17 14:26:25;;;;;;;12.00;8.40;;;;;;;;;;6162860;23;20755;-85
2021/12/17 14:28:52;;;;;;;11.73;8.20;;;;;;;;;;6190340;23;20468;-85
2021/12/17 14:31:18;;;;;;;10.80;8.13;;;;;;;;;;6172117;23;20426;-86
2021/12/17 14:33:53;;;;;;;17.30;9.85;;;;;;;;;;6161891;23;20369;-86
2021/12/17 14:36:21;;;;;;;11.27;8.07;;;;;;;;;;6188561;23;20445;-84
2021/12/17 14:38:56;;;;;;;11.02;8.75;;;;;;;;;;6162651;23;20378;-86
2021/12/17 14:41:29;;;;;;;10.93;9.13;;;;;;;;;;6162848;23;20384;-85
2021/12/17 14:44:08;;;;;;;11.07;8.60;;;;;;;;;;6164315;23;20412;-85
2021/12/17 14:47:29;;;;;;;14.02;11.70;;;9.50;99.90;;;;;;6141112;23;20369;-84
2021/12/17 15:02:56;;;;;;;11.47;8.27;;;;;;;;;;6180320;23;20413;-85
2021/12/17 15:05:24;;;;;;;11.73;8.43;;;;;;;;;;6156454;23;20902;-86
2021/12/17 15:07:51;;;;;;;12.35;8.27;;;;;;;;;;6178294;23;20711;-85
2021/12/17 15:10:19;;;;;;;12.60;9.02;;;;;;;;;;6155580;23;20743;-85
2021/12/17 15:12:45;;;;;;;13.23;9.20;;;;;;;;;;6154643;23;20420;-85
2021/12/17 15:15:12;;;;;;;12.50;9.18;;;;;;;;;;6157095;23;20396;-83
2021/12/17 15:17:38;;;;;;;13.23;10.00;;;;;;;;;;6154040;23;20784;-84
2021/12/17 15:20:06;;;;;;;13.48;10.52;;;;;;;;;;6179660;23;20369;-83
2021/12/17 15:22:32;;;;;;;11.88;8.55;;;;;;;;;;6181870;23;20713;-83
2021/12/17 15:24:58;;;;;;;14.00;9.75;;;;;;;;;;6156363;23;20496;-84
2021/12/17 15:27:25;;;;;;;13.00;10.30;;;;;;;;;;6186918;23;20379;-82
2021/12/17 15:29:51;;;;;;;13.93;9.75;;;;;;;;;;6160379;23;20384;-85
2021/12/17 15:32:17;;;;;;;13.20;9.50;;;;;;;;;;6161651;23;20995;-87
2021/12/17 15:34:43;;;;;;;14.40;10.13;;;;;;;;;;6135969;23;20374;-84
2021/12/17 15:37:09;;;;;;;14.23;9.73;;;;;;;;;;6139294;23;20370;-85
2021/12/17 15:39:35;;;;;;;13.25;9.32;;;;;;;;;;6187795;23;20377;-86
2021/12/17 15:42:01;;;;;;;13.45;9.45;;;;;;;;;;6160103;23;20377;-83
2021/12/17 15:44:27;;;;;;;13.77;10.33;;;;;;;;;;6136394;23;20393;-83
2021/12/17 15:46:54;;;;;;;12.57;8.68;;;;;;;;;;6186360;23;20389;-83
2021/12/17 15:49:20;;;;;;;13.25;9.40;;;;;;;;;;6162639;23;20452;-83
2021/12/17 15:51:46;;;;;;;12.95;9.95;;;;;;;;;;6136136;23;20536;-85
2021/12/17 15:54:12;;;;;;;15.80;9.82;;;;;;;;;;6159933;23;20376;-84
2021/12/17 15:56:40;;;;;;;20.30;14.05;;;;;;;;;;6138692;23;20373;-84
2021/12/17 15:59:06;;;;;;;15.15;10.00;;;;;;;;;;6137483;23;20457;-85
2021/12/17 16:01:33;;;;;;;16.38;11.40;;;;;;;;;;6162164;23;20369;-82
2021/12/17 16:03:59;;;;;;;17.10;11.32;;;;;;;;;;6184968;23;20401;-82
2021/12/17 16:06:25;;;;;;;13.95;10.90;;;;;;;;;;6163141;23;20712;-82
2021/12/17 16:08:55;;;;;;;17.33;10.55;;;;;;;;;;6159523;23;20487;-82
2021/12/17 16:11:50;;;;;;;16.83;12.13;;;;;;;;;;6161374;23;20384;-82
2021/12/17 16:22:38;;;;;;;18.25;11.95;;;;;;;;;;6187222;23;20401;-81
2021/12/17 16:25:04;;;;;;;18.92;11.85;;;;;;;;;;6161283;23;20378;-81
2021/12/17 16:27:31;;;;;;;16.03;10.87;;;;;;;;;;6162343;23;20386;-81
2021/12/17 16:29:57;;;;;;;20.50;10.95;;;;;;;;;;6157378;23;20385;-81
2021/12/17 16:32:24;;;;;;;16.23;10.70;;;;;;;;;;6156807;23;20441;-82
2021/12/17 16:34:50;;;;;;;24.85;13.25;;;;;;;;;;6182828;23;20377;-81
2021/12/17 16:37:16;;;;;;;23.77;15.30;;;;;;;;;;6157194;23;20377;-82
2021/12/17 16:39:42;;;;;;;17.75;11.25;;;;;;;;;;6132327;23;20405;-83
2021/12/17 16:42:16;;;;;;;18.52;11.10;;;;;;;;;;6158379;23;20366;-83
2021/12/17 16:45:02;;;;;;;20.23;10.75;;;;;;;;;;6184339;23;20365;-79
2021/12/17 16:47:34;;;;;;;18.35;10.80;;;;;;;;;;6161309;23;20387;-81
2021/12/17 16:50:00;;;;;;;20.55;12.35;;;;;;;;;;6160312;23;20381;-82
2021/12/17 16:52:30;;;;;;;18.33;10.50;;;;;;;;;;6136420;23;20460;-80
2021/12/17 16:54:56;;;;;;;21.17;12.23;;;;;;;;;;6160546;23;20369;-81
2021/12/17 16:57:22;;;;;;;16.13;10.43;;;;;;;;;;6161382;23;20380;-84
2021/12/17 16:59:48;;;;;;;16.37;9.13;;;;;;;;;;6159973;23;20370;-82
2021/12/17 17:02:15;;;;;;;9.30;6.63;;;;;;;;;;6161678;23;20397;-82
2021/12/17 17:04:41;;;;;;;8.53;6.10;;;;;;;;;;6185613;23;20369;-81
2021/12/17 17:07:07;;;;;;;9.80;6.40;;;;;;;;;;6160935;23;20446;-81
2021/12/17 17:09:34;;;;;;;12.40;8.98;;;;;;;;;;6161438;23;20858;-81
2021/12/17 17:12:04;;;;;;;11.68;7.57;;;;;;;;;;6157680;23;20372;-81
2021/12/17 17:14:31;;;;;;;17.25;10.63;;;;;;;;;;6157349;23;20369;-81
2021/12/17 17:16:57;;;;;;;12.10;7.30;;;;;;;;;;6179646;23;20413;-82
2021/12/17 17:19:23;;;;;;;12.10;7.20;;;;;;;;;;6134059;23;20416;-81
2021/12/17 17:21:50;;;;;;;10.65;6.82;;;;;;;;;;6156783;23;20388;-81
2021/12/17 17:24:17;;;;;;;12.38;7.50;;;;;;;;;;6132536;23;20475;-81
2021/12/17 17:26:44;;;;;;;9.18;5.38;;;;;;;;;;6134220;23;20373;-81
2021/12/17 17:29:10;;;;;;;10.40;6.17;;;;;;;;;;6185061;23;20759;-81
2021/12/17 17:31:37;;;;;;;9.52;5.80;;;;;;;;;;6162163;23;20381;-80
2021/12/17 17:34:05;;;;;;;8.48;6.00;;;;;;;;;;6136883;23;20397;-80
2021/12/17 17:36:31;;;;;;;10.52;6.25;;;;;;;;;;6160454;23;20377;-81
2021/12/17 17:38:57;;;;;;;11.07;6.85;;;;;;;;;;6135111;23;20370;-80
2021/12/17 17:41:26;;;;;;;10.50;6.60;;;;;;;;;;6159399;23;20410;-80
2021/12/17 17:43:53;;;;;;;10.82;6.68;;;;;;;;;;6162388;23;20397;-80